Timisoara, Romania
Current Conditions -  °F | °C
As of 11:30 PM on Saturday 20 Dec 2014 (Local Time) from LRTR Reporting Station
Clear Clear  
Wind Chill: 32°   Ceiling: Unl
Heat Index: 32°   Visibility: 6mi
Dew Point: 32°   Wind: 1mph
Humidity: 100%   Direction: NA
Pressure: 30.12"   Gusts: NA
Location:  45.76°N, 21.23°E
Report Text: LRTR 202030Z VRB01KT CAVOK 00/M00 Q1020 R11/190095
Loading
Personal Weather Stations






























Interactive Weather Map New forecast layout! Learn more

10-Day Weather Forecast

Advertisements
Track Severe Weather on mobile